Aktuální počasí v Česku a ve světě - METAR

Seznam meteostanic umístěných nejčasteji na letišti v ČR a ve světě

Vyhledat místa podle abecedy:
A B C D E F G H I J K L M N O P Q R S T U V W X Y Z

Filtrovat:

ID stanice:
a/nebo
Název místa (fulltext):
 
Místo (ID)Naposledy načteno 
Vagar (EKVG) 01.12.2020 05:50 UTC Zobrazit METAR
EKVG 010550Z AUTO 17021KT 6000 -RA BKN007/// 05/04 Q1017
Valencia (LEVC) 01.12.2020 06:00 UTC Zobrazit METAR
LEVC 010600Z 29005KT CAVOK 08/07 Q1021 NOSIG
Varna (LBWN) 01.12.2020 06:00 UTC Zobrazit METAR
LBWN 010600Z VRB08KT 9999 FEW016 01/M02 Q1023 NOSIG
Verona (LIPX) 01.12.2020 05:50 UTC Zobrazit METAR
LIPX 010550Z AUTO 21002KT 9999 FEW032/// OVC044/// 02/M02 Q1018
Vienna (LOWW) 01.12.2020 05:50 UTC Zobrazit METAR
LOWW 010550Z 14011KT 6000 FEW004 BKN005 M02/M03 Q1020 TEMPO BKN004
Vientiane (VLVT) 01.12.2020 06:00 UTC Zobrazit METAR
VLVT 010600Z 32004KT 8000 NSC 29/17 Q1016 NOSIG
Vieuxfort (TLPL) 01.12.2020 06:00 UTC Zobrazit METAR
TLPL 010600Z 06013KT 9999 -SHRA BKN018 27/23 Q1013 TEMPO SHRA
Vilnius (EYVI) 01.12.2020 05:50 UTC Zobrazit METAR
EYVI 010550Z 18009KT 2300 BR OVC002 M01/M01 Q1024 R19/2///95 NOSIG
Vitebsk (UMII) Zatím nenačteno  
Volgograd (URWW) Zatím nenačteno  
Voronezh (UUOO) Zatím nenačteno  
Reklama


Další české internetové stránky (nejen) o počasí najdete v katalogu TOPlist - weby o počasí nebo vyhledejte na internetu, co jste tu na 🌞 Slunečnu ⛅ zatím nenašli:
⭐ Přidat Slunečno.cz do oblíbených | 🏠 Nastavit Slunečno.cz jako HOMEPAGE

⬆️ Posunout stránku nahoru ⬆️
Reklama